Time;durP1;ratioP1;P1;durP2;ratioP2;P2;SDS_P1;SDS_P2;PMS_P1;PMS_P2;Temp;Humidity;BMP_temperature;BMP_pressure;BME280_temperature;BME280_humidity;BME280_pressure;Samples;Min_cycle;Max_cycle;Signal;HPM_P1;HPM_P2
2023/02/10 00:00:33;;;;;;;38.97;35.20;;;;;;;;;;5086165;28;20226;-85
2023/02/10 00:03:00;;;;;;;40.40;36.60;;;;;;;;;;5085889;28;20214;-85
2023/02/10 00:05:27;;;;;;;39.50;35.65;;;;;;;;;;5085569;28;20264;-86
2023/02/10 00:07:56;;;;;;;39.17;35.63;;;;;;;;;;5085230;28;20209;-86
2023/02/10 00:10:23;;;;;;;39.97;36.17;;;;;;;;;;5085870;28;20213;-85
2023/02/10 00:12:50;;;;;;;40.35;36.53;;;;;;;;;;5085497;28;20223;-85
2023/02/10 00:15:17;;;;;;;39.67;35.97;;;;;;;;;;5086052;28;20275;-85
2023/02/10 00:17:44;;;;;;;39.67;35.45;;;;;;;;;;5085985;28;20617;-85
2023/02/10 00:20:11;;;;;;;41.95;37.88;;;;;;;;;;5085452;28;20209;-85
2023/02/10 00:22:38;;;;;;;39.75;35.72;;;;;;;;;;5084737;28;20224;-85
2023/02/10 00:25:07;;;;;;;41.00;37.30;;;;;;;;;;5085048;28;20230;-85
2023/02/10 00:27:34;;;;;;;41.55;37.42;;;;;;;;;;5085560;28;20242;-85
2023/02/10 00:30:01;;;;;;;40.55;36.85;;;;;;;;;;5084650;28;20574;-86
2023/02/10 00:32:28;;;;;;;41.33;37.38;;;;;;;;;;5085051;28;20202;-85
2023/02/10 00:34:56;;;;;;;42.13;37.83;;;;;;;;;;5085086;28;20756;-86
2023/02/10 00:37:23;;;;;;;41.72;37.55;;;;;;;;;;5084021;28;20261;-86
2023/02/10 00:39:50;;;;;;;41.55;37.55;;;;;;;;;;5086041;28;20205;-86
2023/02/10 00:42:19;;;;;;;44.00;39.42;;;;;;;;;;5083866;28;20287;-86
2023/02/10 00:44:46;;;;;;;42.88;38.35;;;;;;;;;;5084931;28;20221;-85
2023/02/10 00:47:13;;;;;;;47.25;41.42;;;;;;;;;;5085617;28;20200;-85
2023/02/10 00:49:40;;;;;;;42.13;38.13;;;;;;;;;;5084478;28;20210;-85
2023/02/10 00:52:07;;;;;;;43.55;39.25;;;;;;;;;;5084074;28;20239;-85
2023/02/10 00:54:34;;;;;;;44.78;40.08;;;;;;;;;;5084873;28;20202;-86
2023/02/10 00:57:01;;;;;;;42.67;38.38;;;;;;;;;;5082762;28;20213;-85
2023/02/10 00:59:29;;;;;;;43.97;39.38;;;;;;;;;;5084663;28;20198;-86
2023/02/10 01:01:56;;;;;;;44.70;40.05;;;;;;;;;;5084409;28;20224;-86
2023/02/10 01:04:23;;;;;;;43.58;39.28;;;;;;;;;;5084428;28;20204;-86
2023/02/10 01:06:50;;;;;;;47.47;41.35;;;;;;;;;;5083712;28;20675;-86
2023/02/10 01:09:17;;;;;;;44.85;40.13;;;;;;;;;;5084507;28;20236;-85
2023/02/10 01:11:44;;;;;;;47.33;42.35;;;;;;;;;;5083822;28;20655;-85
2023/02/10 01:14:12;;;;;;;45.67;40.78;;;;;;;;;;5084368;28;20729;-85
2023/02/10 01:16:40;;;;;;;51.28;40.13;;;;;;;;;;5084282;28;20274;-86
2023/02/10 01:19:07;;;;;;;46.13;40.40;;;;;;;;;;5084278;28;20270;-85
2023/02/10 01:21:36;;;;;;;45.92;40.95;;;;;;;;;;5084233;28;20221;-85
2023/02/10 01:24:03;;;;;;;46.85;41.90;;;;;;;;;;5084273;28;20200;-87
2023/02/10 01:26:30;;;;;;;49.38;41.80;;;;;;;;;;5084148;28;20230;-86
2023/02/10 01:28:57;;;;;;;51.25;43.00;;;;;;;;;;5084970;28;20210;-86
2023/02/10 01:31:24;;;;;;;48.28;43.03;;;;;;;;;;5084410;28;20726;-86
2023/02/10 01:33:53;;;;;;;45.03;40.17;;;;;;;;;;5084375;28;20205;-86
2023/02/10 01:36:21;;;;;;;49.70;43.05;;;;;;;;;;5083471;28;20575;-85
2023/02/10 01:38:49;;;;;;;44.90;40.40;;;;;;;;;;5084755;28;20236;-85
2023/02/10 01:41:17;;;;;;;45.33;40.03;;;;;;;;;;5084899;28;20647;-86
2023/02/10 01:43:58;;;;;;;48.10;42.97;;;;;;;;;;5084168;28;20260;-85
2023/02/10 01:46:25;;;;;;;49.88;42.55;;;;;;;;;;5083245;28;20278;-85
2023/02/10 01:48:54;;;;;;;48.95;43.60;;;;;;;;;;5083756;28;20194;-85
2023/02/10 01:51:23;;;;;;;45.85;40.95;;;;;;;;;;5084105;28;20672;-86
2023/02/10 01:53:50;;;;;;;45.22;40.70;;;;;;;;;;5084012;28;20232;-85
2023/02/10 01:56:18;;;;;;;46.00;41.10;;;;;;;;;;5083535;28;20245;-85
2023/02/10 01:58:45;;;;;;;52.78;44.35;;;;;;;;;;5083866;28;20725;-85
2023/02/10 02:01:12;;;;;;;51.47;44.05;;;;;;;;;;5084250;28;20222;-86
2023/02/10 02:03:41;;;;;;;50.55;41.75;;;;;;;;;;5083826;28;20218;-85
2023/02/10 02:06:09;;;;;;;50.40;44.78;;;;;;;;;;5083208;28;20230;-85
2023/02/10 02:08:37;;;;;;;51.90;44.25;;;;;;;;;;5084049;28;20209;-85
2023/02/10 02:11:16;;;;;;;50.40;42.03;;;;;;;;;;5084343;28;20210;-85
2023/02/10 02:13:57;;;;;;;48.17;42.72;;;;;;;;;;5084602;28;20296;-86
2023/02/10 02:16:30;;;;;;;53.45;42.60;;;;;;;;;;5084197;28;20299;-86
2023/02/10 02:19:00;;;;;;;55.35;44.47;;;;;;;;;;5083720;28;20202;-85
2023/02/10 02:21:49;;;;;;;49.60;42.60;;;;;;;;;;5083195;28;20263;-85
2023/02/10 02:24:37;;;;;;;51.78;41.38;;;;;;;;;;5084104;28;20193;-85
2023/02/10 02:27:16;;;;;;;46.65;41.00;;;;;;;;;;5077597;28;20206;-85
2023/02/10 02:29:59;;;;;;;47.95;41.10;;;;;;;;;;5083923;28;20190;-85
2023/02/10 02:32:28;;;;;;;53.90;43.25;;;;;;;;;;5083140;28;20197;-86
2023/02/10 02:35:00;;;;;;;49.80;42.38;;;;;;;;;;5082838;28;20343;-85
2023/02/10 02:37:29;;;;;;;45.00;40.13;;;;;;;;;;5083702;28;20197;-85
2023/02/10 02:39:57;;;;;;;45.15;40.08;;;;;;;;;;5083915;28;20649;-86
2023/02/10 02:42:25;;;;;;;52.72;41.42;;;;;;;;;;5083293;28;20223;-85
2023/02/10 02:44:54;;;;;;;44.03;39.33;;;;;;;;;;5083811;28;20224;-85
2023/02/10 02:47:27;;;;;;;46.47;41.30;;;;;;;;;;5082750;28;20206;-86
2023/02/10 02:50:02;;;;;;;43.72;38.83;;;;;;;;;;5084217;28;20191;-85
2023/02/10 02:52:33;;;;;;;51.05;41.53;;;;;;;;;;5083457;28;20185;-85
2023/02/10 02:55:03;;;;;;;44.63;39.72;;;;;;;;;;5083526;28;20226;-85
2023/02/10 02:57:36;;;;;;;47.60;41.15;;;;;;;;;;5082823;28;20258;-85
2023/02/10 03:00:05;;;;;;;46.58;39.85;;;;;;;;;;5083779;28;20198;-85
2023/02/10 03:02:33;;;;;;;50.08;41.55;;;;;;;;;;5083959;28;20221;-85
2023/02/10 03:05:02;;;;;;;48.22;41.35;;;;;;;;;;5084510;28;20285;-85
2023/02/10 03:07:29;;;;;;;47.20;42.20;;;;;;;;;;5088125;28;20561;-85
2023/02/10 03:09:56;;;;;;;52.70;40.40;;;;;;;;;;5088200;28;20213;-85
2023/02/10 03:12:23;;;;;;;53.25;41.63;;;;;;;;;;5087714;28;20201;-85
2023/02/10 03:14:50;;;;;;;48.40;42.30;;;;;;;;;;5087043;28;20304;-85
2023/02/10 03:17:17;;;;;;;46.35;39.40;;;;;;;;;;5088338;28;20198;-86
2023/02/10 03:19:44;;;;;;;49.83;39.97;;;;;;;;;;5088356;28;20616;-85
2023/02/10 03:22:12;;;;;;;45.03;40.13;;;;;;;;;;5086612;28;20275;-85
2023/02/10 03:24:39;;;;;;;50.63;41.83;;;;;;;;;;5086927;28;20532;-86
2023/02/10 03:27:06;;;;;;;48.67;41.08;;;;;;;;;;5087075;28;20611;-85
2023/02/10 03:29:33;;;;;;;47.20;40.20;;;;;;;;;;5087762;28;20251;-85
2023/02/10 03:32:01;;;;;;;55.08;42.08;;;;;;;;;;5086231;28;20222;-85
2023/02/10 03:34:28;;;;;;;49.85;41.25;;;;;;;;;;5086620;28;20269;-85
2023/02/10 03:36:55;;;;;;;50.97;41.28;;;;;;;;;;5087599;28;20205;-85
2023/02/10 03:39:24;;;;;;;53.00;43.22;;;;;;;;;;5087929;28;20205;-85
2023/02/10 03:41:53;;;;;;;48.85;40.97;;;;;;;;;;5087024;28;20223;-85
2023/02/10 03:44:20;;;;;;;57.10;45.53;;;;;;;;;;5087484;28;20300;-85
2023/02/10 03:46:47;;;;;;;52.97;41.65;;;;;;;;;;5086856;28;20238;-85
2023/02/10 03:49:14;;;;;;;50.15;41.65;;;;;;;;;;5086756;28;20200;-85
2023/02/10 03:51:41;;;;;;;49.92;42.90;;;;;;;;;;5086601;28;20207;-85
2023/02/10 03:54:08;;;;;;;50.13;42.90;;;;;;;;;;5087260;28;20204;-85
2023/02/10 03:56:37;;;;;;;57.90;42.70;;;;;;;;;;5085529;28;20637;-88
2023/02/10 03:59:04;;;;;;;47.33;39.08;;;;;;;;;;5086408;28;20255;-84
2023/02/10 04:01:31;;;;;;;54.15;42.42;;;;;;;;;;5086260;28;20235;-85
2023/02/10 04:03:58;;;;;;;55.78;44.97;;;;;;;;;;5085723;28;20740;-85
2023/02/10 04:06:25;;;;;;;55.40;42.88;;;;;;;;;;5085645;28;20232;-85
2023/02/10 04:08:52;;;;;;;50.58;41.60;;;;;;;;;;5085754;28;20256;-85
2023/02/10 04:11:19;;;;;;;49.10;44.20;;;;;;;;;;5085905;28;20264;-86
2023/02/10 04:13:47;;;;;;;47.42;42.15;;;;;;;;;;5085697;28;20204;-85
2023/02/10 04:16:15;;;;;;;51.33;43.75;;;;;;;;;;5085409;28;20225;-85
2023/02/10 04:18:43;;;;;;;48.35;43.15;;;;;;;;;;5086207;28;20279;-85
2023/02/10 04:21:11;;;;;;;48.20;42.42;;;;;;;;;;5086238;28;20220;-85
2023/02/10 04:23:38;;;;;;;46.53;41.00;;;;;;;;;;5085176;28;20283;-85
2023/02/10 04:26:06;;;;;;;50.15;43.80;;;;;;;;;;5083675;28;20224;-85
2023/02/10 04:28:33;;;;;;;50.25;43.67;;;;;;;;;;5085062;28;20210;-86
2023/02/10 04:31:01;;;;;;;53.60;42.70;;;;;;;;;;5085429;28;20198;-85
2023/02/10 04:33:29;;;;;;;52.25;42.97;;;;;;;;;;5084752;28;20210;-85
2023/02/10 04:35:57;;;;;;;52.17;42.55;;;;;;;;;;5084391;28;20237;-85
2023/02/10 04:38:24;;;;;;;51.03;43.38;;;;;;;;;;5086047;28;20203;-85
2023/02/10 04:40:51;;;;;;;49.90;42.85;;;;;;;;;;5085230;28;20205;-85
2023/02/10 04:43:18;;;;;;;48.55;43.20;;;;;;;;;;5084925;28;20229;-85
2023/02/10 04:45:46;;;;;;;50.42;44.85;;;;;;;;;;5085137;28;20235;-86
2023/02/10 04:48:14;;;;;;;49.92;42.70;;;;;;;;;;5084459;28;20209;-85
2023/02/10 04:50:42;;;;;;;50.67;43.00;;;;;;;;;;5084798;28;20224;-85
2023/02/10 04:53:09;;;;;;;52.33;44.08;;;;;;;;;;5083582;28;20319;-85
2023/02/10 04:55:36;;;;;;;50.47;43.85;;;;;;;;;;5084731;28;20249;-85
2023/02/10 04:58:03;;;;;;;48.17;42.90;;;;;;;;;;5085474;28;20212;-85
2023/02/10 05:00:30;;;;;;;53.08;43.50;;;;;;;;;;5084405;28;20208;-85
2023/02/10 05:02:57;;;;;;;51.78;44.38;;;;;;;;;;5083748;28;20230;-85
2023/02/10 05:05:25;;;;;;;54.03;44.65;;;;;;;;;;5083551;28;20754;-84
2023/02/10 05:07:52;;;;;;;50.80;45.15;;;;;;;;;;5084371;28;20182;-86
2023/02/10 05:10:19;;;;;;;60.88;45.33;;;;;;;;;;5084626;28;20205;-85
2023/02/10 05:12:46;;;;;;;49.90;44.60;;;;;;;;;;5084046;28;20205;-85
2023/02/10 05:15:14;;;;;;;51.40;42.75;;;;;;;;;;5084375;28;20229;-85
2023/02/10 05:17:42;;;;;;;54.25;43.38;;;;;;;;;;5084301;28;20212;-85
2023/02/10 05:20:09;;;;;;;49.20;42.60;;;;;;;;;;5084922;28;20242;-85
2023/02/10 05:22:37;;;;;;;50.53;43.53;;;;;;;;;;5084361;28;20216;-85
2023/02/10 05:25:04;;;;;;;48.72;43.35;;;;;;;;;;5083830;28;20271;-85
2023/02/10 05:27:31;;;;;;;49.33;43.45;;;;;;;;;;5083262;28;20213;-85
2023/02/10 05:29:58;;;;;;;51.20;44.80;;;;;;;;;;5083845;28;20612;-85
2023/02/10 05:32:26;;;;;;;52.58;42.75;;;;;;;;;;5083566;28;20206;-85
2023/02/10 05:34:53;;;;;;;49.67;43.80;;;;;;;;;;5084220;28;20333;-85
2023/02/10 05:37:20;;;;;;;54.78;44.13;;;;;;;;;;5083828;28;20263;-85
2023/02/10 05:39:48;;;;;;;52.90;45.45;;;;;;;;;;5084118;28;20249;-85
2023/02/10 05:42:15;;;;;;;47.30;42.20;;;;;;;;;;5083103;28;20238;-85
2023/02/10 05:44:42;;;;;;;52.92;44.80;;;;;;;;;;5083148;28;20283;-85
2023/02/10 05:47:10;;;;;;;50.15;43.28;;;;;;;;;;5083280;28;20216;-85
2023/02/10 05:49:37;;;;;;;56.47;45.13;;;;;;;;;;5083648;28;20205;-85
2023/02/10 05:52:04;;;;;;;55.35;44.15;;;;;;;;;;5083456;28;20310;-86
2023/02/10 05:54:31;;;;;;;49.72;42.65;;;;;;;;;;5083719;28;20202;-86
2023/02/10 05:56:59;;;;;;;47.83;43.03;;;;;;;;;;5083981;28;20289;-85
2023/02/10 05:59:26;;;;;;;52.08;46.17;;;;;;;;;;5083501;28;20206;-84
2023/02/10 06:01:53;;;;;;;50.38;43.53;;;;;;;;;;5083604;28;20206;-85
2023/02/10 06:04:20;;;;;;;55.53;44.10;;;;;;;;;;5083135;28;20765;-85
2023/02/10 06:06:47;;;;;;;52.35;45.10;;;;;;;;;;5083798;28;20248;-85
2023/02/10 06:09:14;;;;;;;50.50;43.05;;;;;;;;;;5082904;28;20228;-85
2023/02/10 06:11:41;;;;;;;54.58;43.20;;;;;;;;;;5083031;28;20617;-85
2023/02/10 06:14:10;;;;;;;49.75;44.35;;;;;;;;;;5083658;28;20198;-85
2023/02/10 06:16:37;;;;;;;50.70;43.00;;;;;;;;;;5082909;28;20232;-85
2023/02/10 06:19:04;;;;;;;57.88;44.40;;;;;;;;;;5083070;28;20241;-86
2023/02/10 06:21:31;;;;;;;49.00;42.42;;;;;;;;;;5083162;28;20237;-85
2023/02/10 06:23:58;;;;;;;52.60;44.58;;;;;;;;;;5082767;28;20230;-85
2023/02/10 06:26:27;;;;;;;51.08;40.97;;;;;;;;;;5083097;28;20630;-85
2023/02/10 06:28:54;;;;;;;49.90;42.83;;;;;;;;;;5083549;28;20214;-86
2023/02/10 06:31:23;;;;;;;55.85;45.65;;;;;;;;;;5082826;28;20208;-86
2023/02/10 06:33:50;;;;;;;52.88;42.85;;;;;;;;;;5083719;28;20202;-85
2023/02/10 06:36:17;;;;;;;49.33;43.50;;;;;;;;;;5082623;28;20260;-85
2023/02/10 06:38:44;;;;;;;50.47;45.00;;;;;;;;;;5084082;28;20236;-85
2023/02/10 06:41:11;;;;;;;58.35;45.90;;;;;;;;;;5086133;28;20205;-85
2023/02/10 06:43:38;;;;;;;63.90;46.25;;;;;;;;;;5087290;28;20252;-85
2023/02/10 06:46:06;;;;;;;64.70;48.22;;;;;;;;;;5086112;28;20222;-86
2023/02/10 06:48:35;;;;;;;51.33;44.38;;;;;;;;;;5088030;28;20206;-85
2023/02/10 06:51:02;;;;;;;54.70;45.45;;;;;;;;;;5087539;28;20211;-85
2023/02/10 06:53:29;;;;;;;49.13;42.53;;;;;;;;;;5098362;28;20314;-85
2023/02/10 06:55:57;;;;;;;65.97;49.13;;;;;;;;;;5107188;28;20255;-86
2023/02/10 06:58:24;;;;;;;60.75;45.08;;;;;;;;;;5107205;28;20296;-85
2023/02/10 07:00:51;;;;;;;60.13;48.13;;;;;;;;;;5107125;28;20242;-85
2023/02/10 07:03:18;;;;;;;55.95;46.40;;;;;;;;;;5106478;28;20229;-85
2023/02/10 07:05:47;;;;;;;59.17;45.70;;;;;;;;;;5107586;28;20226;-86
2023/02/10 07:08:14;;;;;;;58.90;45.55;;;;;;;;;;5106897;28;20286;-85
2023/02/10 07:10:41;;;;;;;57.65;45.45;;;;;;;;;;5106693;28;20234;-86
2023/02/10 07:13:08;;;;;;;58.30;47.58;;;;;;;;;;5106496;28;20233;-85
2023/02/10 07:15:35;;;;;;;58.03;44.13;;;;;;;;;;5107169;28;20225;-85
2023/02/10 07:18:02;;;;;;;58.90;45.97;;;;;;;;;;5106966;28;20266;-83
2023/02/10 07:20:29;;;;;;;59.25;44.60;;;;;;;;;;5105289;28;20202;-81
2023/02/10 07:22:58;;;;;;;56.58;47.10;;;;;;;;;;5104604;28;20221;-81
2023/02/10 07:25:25;;;;;;;62.53;48.50;;;;;;;;;;5104355;28;20568;-85
2023/02/10 07:27:51;;;;;;;61.33;47.10;;;;;;;;;;5106761;28;20228;-85
2023/02/10 07:30:19;;;;;;;61.42;48.70;;;;;;;;;;5107654;28;20262;-85
2023/02/10 07:32:45;;;;;;;57.35;48.10;;;;;;;;;;5104121;28;20198;-82
2023/02/10 07:35:13;;;;;;;67.57;48.90;;;;;;;;;;5104442;28;20283;-82
2023/02/10 07:37:40;;;;;;;56.47;46.47;;;;;;;;;;5103601;28;20642;-81
2023/02/10 07:40:09;;;;;;;68.75;48.85;;;;;;;;;;5104261;28;20208;-81
2023/02/10 07:42:36;;;;;;;64.78;49.22;;;;;;;;;;5104084;28;20199;-81
2023/02/10 07:45:04;;;;;;;59.10;48.45;;;;;;;;;;5103607;28;20228;-81
2023/02/10 07:47:31;;;;;;;64.90;49.10;;;;;;;;;;5102512;28;20231;-81
2023/02/10 07:49:58;;;;;;;69.72;50.47;;;;;;;;;;5104386;28;20201;-81
2023/02/10 07:52:25;;;;;;;63.55;48.75;;;;;;;;;;5102183;28;20209;-81
2023/02/10 07:54:52;;;;;;;68.13;48.22;;;;;;;;;;5102552;28;20221;-80
2023/02/10 07:57:20;;;;;;;66.78;49.03;;;;;;;;;;5100015;28;20668;-81
2023/02/10 07:59:47;;;;;;;65.82;50.03;;;;;;;;;;5100903;28;20209;-80
2023/02/10 08:02:14;;;;;;;59.65;46.83;;;;;;;;;;5101080;28;20254;-80
2023/02/10 08:04:41;;;;;;;62.20;50.67;;;;;;;;;;5101695;28;20214;-81
2023/02/10 08:07:08;;;;;;;66.28;49.33;;;;;;;;;;5101370;28;20209;-80
2023/02/10 08:09:35;;;;;;;70.65;51.92;;;;;;;;;;5102730;28;20206;-80
2023/02/10 08:12:02;;;;;;;63.42;49.85;;;;;;;;;;5102053;28;20258;-80
2023/02/10 08:14:30;;;;;;;73.95;51.17;;;;;;;;;;5102109;28;20227;-81
2023/02/10 08:16:58;;;;;;;61.80;49.05;;;;;;;;;;5102105;28;20254;-80
2023/02/10 08:19:25;;;;;;;70.07;50.38;;;;;;;;;;5101500;28;20682;-80
2023/02/10 08:21:52;;;;;;;65.97;48.47;;;;;;;;;;5101815;28;20236;-80
2023/02/10 08:24:19;;;;;;;69.72;49.95;;;;;;;;;;5101817;28;20217;-80
2023/02/10 08:26:46;;;;;;;71.65;50.00;;;;;;;;;;5101582;28;20254;-80
2023/02/10 08:29:13;;;;;;;65.35;49.88;;;;;;;;;;5101978;28;20210;-81
2023/02/10 08:31:41;;;;;;;71.63;48.95;;;;;;;;;;5101430;28;20252;-80
2023/02/10 08:34:14;;;;;;;58.90;49.88;;;;;;;;;;5102042;28;20206;-81
2023/02/10 08:36:42;;;;;;;61.63;48.67;;;;;;;;;;5102657;28;20577;-80
2023/02/10 08:39:09;;;;;;;62.67;51.38;;;;;;;;;;5101977;28;20205;-80
2023/02/10 08:41:36;;;;;;;64.38;50.63;;;;;;;;;;5102092;28;20209;-81
2023/02/10 08:44:03;;;;;;;62.15;49.88;;;;;;;;;;5102397;28;20221;-80
2023/02/10 08:46:30;;;;;;;63.28;48.50;;;;;;;;;;5101351;28;20225;-81
2023/02/10 08:49:00;;;;;;;69.65;51.45;;;;;;;;;;5101154;28;20202;-80
2023/02/10 08:51:27;;;;;;;63.13;48.22;;;;;;;;;;5101846;28;20635;-81
2023/02/10 08:53:55;;;;;;;67.05;50.22;;;;;;;;;;5102141;28;20209;-80
2023/02/10 08:56:22;;;;;;;66.88;50.97;;;;;;;;;;5101571;28;20221;-80
2023/02/10 08:58:50;;;;;;;67.18;49.65;;;;;;;;;;5102215;28;20209;-79
2023/02/10 09:01:18;;;;;;;59.67;50.35;;;;;;;;;;5100696;28;20214;-81
2023/02/10 09:03:45;;;;;;;68.50;49.72;;;;;;;;;;5100218;28;20239;-80
2023/02/10 09:06:17;;;;;;;65.00;50.50;;;;;;;;;;5101546;28;20279;-80
2023/02/10 09:08:46;;;;;;;63.53;49.78;;;;;;;;;;5101091;28;20206;-80
2023/02/10 09:11:13;;;;;;;62.90;50.63;;;;;;;;;;5101144;28;20256;-80
2023/02/10 09:13:40;;;;;;;59.17;48.63;;;;;;;;;;5100441;28;20251;-82
2023/02/10 09:16:07;;;;;;;70.30;48.92;;;;;;;;;;5100730;28;20278;-81
2023/02/10 09:18:34;;;;;;;48.42;37.55;;;;;;;;;;5101271;28;20274;-81
2023/02/10 09:21:01;;;;;;;66.68;49.00;;;;;;;;;;5100143;28;20202;-81
2023/02/10 09:23:30;;;;;;;61.60;46.72;;;;;;;;;;5100174;28;20219;-81
2023/02/10 09:25:57;;;;;;;62.53;47.15;;;;;;;;;;5100813;28;20229;-80
2023/02/10 09:28:25;;;;;;;41.33;33.63;;;;;;;;;;5100221;28;20570;-81
2023/02/10 09:30:51;;;;;;;60.78;43.67;;;;;;;;;;5100745;28;20210;-80
2023/02/10 09:33:19;;;;;;;56.47;44.35;;;;;;;;;;5100486;28;20209;-81
2023/02/10 09:35:46;;;;;;;63.60;44.72;;;;;;;;;;5100264;28;20232;-81
2023/02/10 09:38:14;;;;;;;64.43;46.33;;;;;;;;;;5100052;28;20198;-80
2023/02/10 09:40:48;;;;;;;61.65;49.03;;;;;;;;;;5100390;28;20208;-81
2023/02/10 09:43:21;;;;;;;54.80;43.55;;;;;;;;;;5099345;28;20259;-81
2023/02/10 09:45:48;;;;;;;59.28;46.05;;;;;;;;;;5099946;28;20293;-80
2023/02/10 09:48:22;;;;;;;45.58;38.85;;;;;;;;;;5100009;28;20206;-81
2023/02/10 09:50:55;;;;;;;56.75;46.00;;;;;;;;;;5100885;28;20240;-81
2023/02/10 09:53:23;;;;;;;56.47;43.03;;;;;;;;;;5099466;28;20643;-81
2023/02/10 09:55:54;;;;;;;61.75;46.75;;;;;;;;;;5098771;28;20272;-80
2023/02/10 09:58:23;;;;;;;54.65;44.58;;;;;;;;;;5100911;28;20205;-80
2023/02/10 10:00:53;;;;;;;55.40;43.17;;;;;;;;;;5099958;28;20205;-81
2023/02/10 10:03:21;;;;;;;62.80;46.35;;;;;;;;;;5098984;28;20213;-81
2023/02/10 10:05:52;;;;;;;36.95;33.15;;;;;;;;;;5098862;28;20703;-81
2023/02/10 10:08:23;;;;;;;61.67;48.38;;;;;;;;;;5099637;28;20239;-80
2023/02/10 10:10:51;;;;;;;58.15;47.45;;;;;;;;;;5099652;28;20197;-81
2023/02/10 10:13:21;;;;;;;60.70;45.03;;;;;;;;;;5096088;28;20260;-84
2023/02/10 10:15:56;;;;;;;62.67;46.30;;;;;;;;;;5101788;28;20301;-80
2023/02/10 10:18:28;;;;;;;62.75;44.95;;;;;;;;;;5107209;28;20189;-80
2023/02/10 10:20:57;;;;;;;47.15;38.25;;;;;;;;;;5106894;28;20729;-80
2023/02/10 10:23:34;;;;;;;48.28;37.97;;;;;;;;;;5106677;28;20205;-84
2023/02/10 10:26:22;;;;;;;33.55;30.08;;;;;;;;;;5104975;28;20706;-86
2023/02/10 10:28:55;;;;;;;58.05;43.53;;;;;;;;;;5078546;28;20207;-81
2023/02/10 10:31:25;;;;;;;56.92;44.65;;;;;;;;;;5083748;28;20206;-81
2023/02/10 10:33:53;;;;;;;54.72;45.03;;;;;;;;;;5084826;28;20202;-81
2023/02/10 10:36:22;;;;;;;56.70;44.35;;;;;;;;;;5084385;28;20288;-81
2023/02/10 10:38:51;;;;;;;61.00;44.70;;;;;;;;;;5084113;28;20213;-80
2023/02/10 10:41:18;;;;;;;64.03;47.22;;;;;;;;;;5099279;28;20293;-81
2023/02/10 10:43:47;;;;;;;53.00;44.90;;;;;;;;;;5105813;28;20201;-80
2023/02/10 10:46:19;;;;;;;56.90;45.95;;;;;;;;;;5104121;28;20494;-80
2023/02/10 10:48:46;;;;;;;40.67;36.22;;;;;;;;;;5099040;28;20250;-80
2023/02/10 10:51:13;;;;;;;55.30;43.28;;;;;;;;;;5084859;28;20213;-80
2023/02/10 10:53:42;;;;;;;40.67;36.38;;;;;;;;;;5084230;28;20203;-80
2023/02/10 10:56:13;;;;;;;49.17;41.90;;;;;;;;;;5084724;28;20255;-80
2023/02/10 10:58:42;;;;;;;42.70;35.50;;;;;;;;;;5084604;28;20281;-80
2023/02/10 11:01:09;;;;;;;48.78;42.00;;;;;;;;;;5084917;28;20694;-80
2023/02/10 11:03:38;;;;;;;49.10;40.17;;;;;;;;;;5083863;28;20267;-80
2023/02/10 11:06:07;;;;;;;53.38;41.53;;;;;;;;;;5083148;28;20254;-80
2023/02/10 11:08:38;;;;;;;56.25;41.50;;;;;;;;;;5085468;28;20210;-80
2023/02/10 11:11:09;;;;;;;55.10;42.72;;;;;;;;;;5085710;28;20191;-80
2023/02/10 11:13:37;;;;;;;54.13;42.57;;;;;;;;;;5084530;28;20625;-80
2023/02/10 11:16:06;;;;;;;51.38;40.88;;;;;;;;;;5084972;28;20464;-80
2023/02/10 11:18:33;;;;;;;51.78;41.03;;;;;;;;;;5085299;28;20206;-80
2023/02/10 11:21:03;;;;;;;40.08;35.17;;;;;;;;;;5083533;28;20260;-80
2023/02/10 11:23:30;;;;;;;53.00;41.20;;;;;;;;;;5084672;28;20285;-80
2023/02/10 11:25:58;;;;;;;34.03;30.73;;;;;;;;;;5084441;28;20488;-80
2023/02/10 11:28:27;;;;;;;40.08;36.13;;;;;;;;;;5084851;28;20207;-80
2023/02/10 11:30:56;;;;;;;46.08;38.97;;;;;;;;;;5084942;28;20242;-80
2023/02/10 11:33:25;;;;;;;55.40;43.22;;;;;;;;;;5084514;28;20205;-80
2023/02/10 11:35:53;;;;;;;52.45;40.35;;;;;;;;;;5084440;28;20223;-80
2023/02/10 11:38:22;;;;;;;46.43;38.13;;;;;;;;;;5104809;28;20255;-80
2023/02/10 11:40:53;;;;;;;39.80;31.80;;;;;;;;;;5104608;28;20463;-80
2023/02/10 11:43:21;;;;;;;39.77;34.83;;;;;;;;;;5104592;28;20210;-80
2023/02/10 11:45:54;;;;;;;47.00;40.78;;;;;;;;;;5105003;28;20482;-80
2023/02/10 11:48:22;;;;;;;35.20;31.50;;;;;;;;;;5105192;28;20567;-80
2023/02/10 11:50:51;;;;;;;36.60;32.88;;;;;;;;;;5105184;28;20210;-80
2023/02/10 11:53:24;;;;;;;39.90;35.55;;;;;;;;;;5104729;28;20229;-80
2023/02/10 11:55:53;;;;;;;33.50;30.05;;;;;;;;;;5105378;28;20222;-79
2023/02/10 12:01:21;;;;;;;35.03;31.50;;;;;;;;;;5103816;28;20428;-80
2023/02/10 12:03:58;;;;;;;39.58;30.40;;;;;;;;;;5104154;28;20521;-80
2023/02/10 12:06:31;;;;;;;45.63;38.38;;;;;;;;;;5104015;28;20711;-87
2023/02/10 12:09:03;;;;;;;40.92;36.58;;;;;;;;;;5107745;28;20253;-83
2023/02/10 12:11:37;;;;;;;47.38;38.25;;;;;;;;;;5103382;28;20257;-80
2023/02/10 12:14:06;;;;;;;46.10;40.47;;;;;;;;;;5104777;28;20189;-80
2023/02/10 12:16:38;;;;;;;46.20;38.33;;;;;;;;;;5101462;28;20718;-79
2023/02/10 12:19:13;;;;;;;44.10;39.47;;;;;;;;;;5095377;28;20260;-74
2023/02/10 12:21:53;;;;;;;39.03;33.63;;;;;;;;;;5096985;28;20817;-80
2023/02/10 12:24:29;;;;;;;35.42;31.90;;;;;;;;;;5096557;28;20229;-75
2023/02/10 12:26:59;;;;;;;31.17;27.85;;;;;;;;;;5094790;28;20207;-74
2023/02/10 12:29:33;;;;;;;44.97;37.70;;;;;;;;;;5094737;28;20205;-75
2023/02/10 12:32:04;;;;;;;45.03;39.97;;;;;;;;;;5094894;28;20455;-75
2023/02/10 12:34:40;;;;;;;40.10;34.80;;;;;;;;;;5094604;28;20690;-75
2023/02/10 12:37:14;;;;;;;35.42;31.85;;;;;;;;;;5095226;28;20430;-75
2023/02/10 12:39:57;;;;;;;37.28;33.63;;;;;;;;;;5094741;28;20206;-75
2023/02/10 12:42:35;;;;;;;38.67;33.90;;;;;;;;;;5093147;28;20626;-75
2023/02/10 12:45:06;;;;;;;31.83;28.58;;;;;;;;;;5094402;28;20484;-75
2023/02/10 12:47:39;;;;;;;37.97;33.87;;;;;;;;;;5094715;28;20206;-75
2023/02/10 12:50:19;;;;;;;45.50;37.60;;;;;;;;;;5094698;28;20444;-77
2023/02/10 12:52:49;;;;;;;38.28;34.47;;;;;;;;;;5094056;28;20475;-74
2023/02/10 12:55:20;;;;;;;41.83;36.92;;;;;;;;;;5094446;28;20703;-75
2023/02/10 12:57:48;;;;;;;45.43;37.43;;;;;;;;;;5093642;28;20206;-74
2023/02/10 13:00:17;;;;;;;45.33;36.47;;;;;;;;;;5094006;28;20444;-75
2023/02/10 13:02:46;;;;;;;41.03;36.20;;;;;;;;;;5093498;28;20516;-75
2023/02/10 13:05:16;;;;;;;29.90;27.10;;;;;;;;;;5093558;28;20484;-75
2023/02/10 13:07:46;;;;;;;36.57;32.20;;;;;;;;;;5093686;28;20419;-75
2023/02/10 13:10:21;;;;;;;28.27;25.75;;;;;;;;;;5093933;28;20507;-76
2023/02/10 13:12:49;;;;;;;34.50;30.90;;;;;;;;;;5093960;28;20739;-77
2023/02/10 13:15:20;;;;;;;39.40;34.13;;;;;;;;;;5093821;28;20439;-77
2023/02/10 13:17:48;;;;;;;32.97;29.57;;;;;;;;;;5094188;28;20840;-77
2023/02/10 13:20:22;;;;;;;38.05;32.28;;;;;;;;;;5094541;28;20538;-76
2023/02/10 13:22:52;;;;;;;37.90;33.85;;;;;;;;;;5093603;28;20192;-77
2023/02/10 13:25:26;;;;;;;34.38;29.95;;;;;;;;;;5094010;28;20629;-76
2023/02/10 13:27:58;;;;;;;33.28;30.27;;;;;;;;;;5094042;28;20193;-76
2023/02/10 13:30:37;;;;;;;38.50;32.70;;;;;;;;;;5093942;28;20182;-76
2023/02/10 13:33:10;;;;;;;37.83;33.15;;;;;;;;;;5092969;28;20418;-77
2023/02/10 13:35:37;;;;;;;37.17;33.30;;;;;;;;;;5092659;28;20768;-76
2023/02/10 13:38:08;;;;;;;40.90;33.30;;;;;;;;;;5092767;28;20232;-77
2023/02/10 13:40:46;;;;;;;32.30;29.00;;;;;;;;;;5093772;28;20452;-77
2023/02/10 13:43:22;;;;;;;38.53;34.43;;;;;;;;;;5093339;28;20460;-77
2023/02/10 13:45:52;;;;;;;33.80;30.80;;;;;;;;;;5093228;28;20498;-77
2023/02/10 13:48:23;;;;;;;34.72;30.95;;;;;;;;;;5093086;28;20663;-77
2023/02/10 13:50:53;;;;;;;30.33;27.05;;;;;;;;;;5093540;28;20646;-76
2023/02/10 13:53:32;;;;;;;35.83;32.13;;;;;;;;;;5092891;28;20238;-77
2023/02/10 13:56:13;;;;;;;36.00;29.50;;;;;;;;;;5093723;28;20222;-77
2023/02/10 13:58:48;;;;;;;34.47;30.77;;;;;;;;;;5093553;28;20487;-77
2023/02/10 14:01:30;;;;;;;37.70;33.80;;;;;;;;;;5093470;28;20411;-78
2023/02/10 14:03:57;;;;;;;36.83;33.07;;;;;;;;;;5093290;28;20480;-77
2023/02/10 14:06:33;;;;;;;35.97;32.63;;;;;;;;;;5092665;28;20474;-77
2023/02/10 14:09:03;;;;;;;35.20;31.90;;;;;;;;;;5093550;28;20465;-77
2023/02/10 14:11:37;;;;;;;39.60;35.28;;;;;;;;;;5092936;28;20527;-77
2023/02/10 14:14:06;;;;;;;28.13;25.97;;;;;;;;;;5093241;28;20282;-77
2023/02/10 14:16:37;;;;;;;39.83;34.50;;;;;;;;;;5093389;28;20465;-77
2023/02/10 14:19:05;;;;;;;39.28;35.10;;;;;;;;;;5093628;28;20492;-76
2023/02/10 14:21:39;;;;;;;39.67;35.63;;;;;;;;;;5092925;28;20208;-77
2023/02/10 14:24:07;;;;;;;34.85;31.88;;;;;;;;;;5093508;28;20214;-80
2023/02/10 14:26:36;;;;;;;38.00;34.13;;;;;;;;;;5095553;28;20295;-79
2023/02/10 14:29:06;;;;;;;36.23;32.40;;;;;;;;;;5096186;28;20415;-81